Time;durP1;ratioP1;P1;durP2;ratioP2;P2;SDS_P1;SDS_P2;PMS_P1;PMS_P2;Temp;Humidity;BMP_temperature;BMP_pressure;BME280_temperature;BME280_humidity;BME280_pressure;Samples;Min_cycle;Max_cycle;Signal;HPM_P1;HPM_P2
2023/05/18 12:27:54;;;;;;;10.37;9.80;;;25.50;99.90;;;;;;4875100;23;21007;-55
2023/05/18 12:30:21;;;;;;;10.27;9.87;;;25.50;99.90;;;;;;4838893;29;20434;-48
2023/05/18 12:32:55;;;;;;;10.47;9.87;;;25.40;99.90;;;;;;4835377;29;20457;-54
2023/05/18 12:35:25;;;;;;;11.63;10.70;;;25.50;99.90;;;;;;4840476;29;20514;-54
2023/05/18 12:37:54;;;;;;;10.30;9.80;;;25.40;99.90;;;;;;4841273;29;20417;-53
2023/05/18 12:40:22;;;;;;;11.10;10.60;;;25.60;99.90;;;;;;4837470;29;20473;-50
2023/05/18 12:42:52;;;;;;;9.87;9.37;;;25.70;99.90;;;;;;4838336;29;20518;-50
2023/05/18 12:45:20;;;;;;;11.03;10.40;;;25.60;99.90;;;;;;4839737;29;20483;-50
2023/05/18 12:47:45;;;;;;;11.30;10.80;;;25.70;99.90;;;;;;4837636;29;20840;-52
2023/05/18 12:50:11;;;;;;;10.60;10.10;;;25.50;99.90;;;;;;4836792;29;20445;-52
2023/05/18 12:52:38;;;;;;;11.20;10.70;;;25.00;99.90;;;;;;4828418;29;20182;-53
2023/05/18 12:55:09;;;;;;;10.47;10.00;;;24.80;99.90;;;;;;4820794;29;20178;-55
2023/05/18 12:57:40;;;;;;;10.27;9.77;;;24.80;99.90;;;;;;4831340;29;20446;-55
2023/05/18 13:00:09;;;;;;;9.77;9.30;;;25.20;99.90;;;;;;4837452;29;20422;-50
2023/05/18 13:02:38;;;;;;;9.60;9.17;;;25.90;99.90;;;;;;4821029;29;20862;-53
2023/05/18 13:05:09;;;;;;;10.77;9.97;;;26.60;99.90;;;;;;4839150;29;20487;-49
2023/05/18 13:07:40;;;;;;;10.97;10.43;;;27.00;99.90;;;;;;4838651;29;20945;-54
2023/05/18 13:10:15;;;;;;;10.77;10.20;;;26.90;99.90;;;;;;4837530;29;20457;-54
2023/05/18 13:12:45;;;;;;;10.00;9.60;;;27.30;99.90;;;;;;4843088;29;20570;-50
2023/05/18 13:15:12;;;;;;;9.97;9.47;;;27.70;99.90;;;;;;4824311;29;21290;-49
2023/05/18 13:17:38;;;;;;;11.20;10.63;;;28.20;99.90;;;;;;4836140;29;20449;-52
2023/05/18 13:20:12;;;;;;;10.50;10.00;;;28.80;99.90;;;;;;4837914;29;20454;-48
2023/05/18 13:22:37;;;;;;;10.70;10.20;;;29.40;99.90;;;;;;4839102;29;20181;-49
2023/05/18 13:25:04;;;;;;;10.83;10.33;;;29.80;99.90;;;;;;4837499;29;20450;-54
2023/05/18 13:27:29;;;;;;;11.03;10.53;;;30.10;99.90;;;;;;4838679;29;20232;-57
2023/05/18 13:29:57;;;;;;;11.30;10.80;;;29.50;99.90;;;;;;4836637;29;20953;-51
2023/05/18 13:32:23;;;;;;;11.10;10.47;;;28.70;99.90;;;;;;4827837;29;20189;-47
2023/05/18 13:34:48;;;;;;;10.57;10.13;;;28.40;99.90;;;;;;4838088;29;20440;-55
2023/05/18 13:37:14;;;;;;;10.10;9.60;;;28.20;99.90;;;;;;4835743;29;20587;-54
2023/05/18 13:39:40;;;;;;;10.80;10.10;;;27.60;99.90;;;;;;4836318;29;20219;-55
2023/05/18 13:42:07;;;;;;;11.00;10.40;;;27.20;99.90;;;;;;4838387;29;20936;-51
2023/05/18 13:44:33;;;;;;;11.00;10.50;;;27.00;99.90;;;;;;4837996;29;20727;-50
2023/05/18 13:46:59;;;;;;;10.40;10.00;;;27.00;99.90;;;;;;4836292;29;20480;-53
2023/05/18 13:49:25;;;;;;;11.83;11.03;;;26.80;99.90;;;;;;4837643;29;20438;-52
2023/05/18 13:51:50;;;;;;;11.00;10.23;;;26.40;99.90;;;;;;4839726;29;20268;-52
2023/05/18 13:54:16;;;;;;;9.53;9.03;;;25.80;99.90;;;;;;4835786;29;20444;-52
2023/05/18 13:56:41;;;;;;;11.47;10.97;;;25.40;99.90;;;;;;4836298;29;20199;-53
2023/05/18 13:59:07;;;;;;;11.97;11.37;;;25.10;99.90;;;;;;4838081;29;20602;-56
2023/05/18 14:01:33;;;;;;;10.83;10.33;;;24.90;99.90;;;;;;4847077;29;20238;-50
2023/05/18 14:03:58;;;;;;;9.93;9.43;;;24.70;99.90;;;;;;4837816;29;20615;-53
2023/05/18 14:06:26;;;;;;;10.80;10.30;;;24.60;99.90;;;;;;4838604;29;20205;-52
2023/05/18 14:08:52;;;;;;;11.17;10.67;;;24.30;99.90;;;;;;4837326;29;20723;-52
2023/05/18 14:11:17;;;;;;;10.80;10.30;;;23.80;99.90;;;;;;4836545;29;20492;-54
2023/05/18 14:13:43;;;;;;;10.80;10.30;;;23.70;99.90;;;;;;4837525;29;20185;-53
2023/05/18 14:16:09;;;;;;;9.73;9.33;;;23.70;99.90;;;;;;4836438;29;20711;-53
2023/05/18 14:18:35;;;;;;;10.70;10.20;;;23.70;99.90;;;;;;4838757;29;20293;-53
2023/05/18 14:21:02;;;;;;;9.93;9.53;;;23.70;99.90;;;;;;4836196;29;20518;-52
2023/05/18 14:23:28;;;;;;;8.97;8.47;;;23.80;71.60;;;;;;4833366;29;20273;-53
2023/05/18 14:25:53;;;;;;;9.27;8.77;;;23.70;98.00;;;;;;4835375;29;20568;-51
2023/05/18 14:28:19;;;;;;;10.13;9.67;;;23.90;70.30;;;;;;4836421;29;20852;-55
2023/05/18 14:30:45;;;;;;;8.57;8.17;;;24.00;72.90;;;;;;4835751;29;20181;-52
2023/05/18 14:33:10;;;;;;;9.67;9.27;;;24.30;99.90;;;;;;4836941;29;20181;-54
2023/05/18 14:35:36;;;;;;;7.67;7.27;;;24.30;99.90;;;;;;4838676;29;20193;-46
2023/05/18 14:38:02;;;;;;;9.07;8.67;;;24.30;99.90;;;;;;4836816;29;20196;-50
2023/05/18 14:40:28;;;;;;;10.67;10.10;;;24.50;99.90;;;;;;4837873;29;20529;-52
2023/05/18 14:42:54;;;;;;;9.87;9.27;;;24.70;99.90;;;;;;4833188;29;20197;-55
2023/05/18 14:45:19;;;;;;;10.07;9.57;;;25.10;99.90;;;;;;4832558;29;20446;-55
2023/05/18 14:47:45;;;;;;;10.20;9.60;;;25.50;99.90;;;;;;4837255;29;20216;-53
2023/05/18 14:50:10;;;;;;;10.23;9.73;;;25.50;99.90;;;;;;4838819;29;20196;-54
2023/05/18 14:52:36;;;;;;;9.27;8.70;;;25.70;99.90;;;;;;4836495;29;20369;-51
2023/05/18 14:55:02;;;;;;;11.10;10.43;;;25.50;65.40;;;;;;4837257;29;20189;-54
2023/05/18 14:57:28;;;;;;;8.93;8.53;;;25.40;66.80;;;;;;4837526;29;20216;-48
2023/05/18 14:59:53;;;;;;;9.10;8.60;;;25.40;95.40;;;;;;4838639;29;20186;-52
2023/05/18 15:02:19;;;;;;;10.70;10.00;;;25.10;67.60;;;;;;4835832;29;20193;-54
2023/05/18 15:04:44;;;;;;;9.60;9.10;;;24.90;67.10;;;;;;4836970;29;20204;-50
2023/05/18 15:07:10;;;;;;;9.70;9.20;;;24.20;99.90;;;;;;4836853;29;20473;-49
2023/05/18 15:09:36;;;;;;;10.10;9.67;;;23.70;99.90;;;;;;4833055;29;20185;-53
2023/05/18 15:12:02;;;;;;;10.63;10.07;;;23.30;99.90;;;;;;4833498;29;20181;-56
2023/05/18 15:14:27;;;;;;;10.87;10.37;;;22.90;99.90;;;;;;4834018;29;20204;-54
2023/05/18 15:16:53;;;;;;;11.23;10.63;;;22.60;99.90;;;;;;4837917;29;20185;-50
2023/05/18 15:19:19;;;;;;;11.27;10.77;;;22.60;99.90;;;;;;4838013;29;20193;-52
2023/05/18 15:21:44;;;;;;;11.37;10.87;;;22.40;99.90;;;;;;4836749;29;20640;-52
2023/05/18 15:24:10;;;;;;;10.13;9.50;;;22.20;99.90;;;;;;4830841;29;20193;-54
2023/05/18 15:26:36;;;;;;;10.07;9.47;;;21.90;99.90;;;;;;4837829;29;20711;-56
2023/05/18 15:29:02;;;;;;;12.30;11.70;;;21.70;99.90;;;;;;4832383;29;20667;-56
2023/05/18 15:31:27;;;;;;;10.00;9.60;;;21.40;99.10;;;;;;4841895;29;20434;-56
2023/05/18 15:33:53;;;;;;;10.50;9.90;;;21.20;99.90;;;;;;4838045;29;20318;-56
2023/05/18 15:36:20;;;;;;;11.10;10.57;;;21.10;99.90;;;;;;4838299;29;20536;-44
2023/05/18 15:38:46;;;;;;;12.00;11.40;;;21.10;99.90;;;;;;4837978;29;20949;-42
2023/05/18 15:41:11;;;;;;;11.00;10.50;;;21.00;99.90;;;;;;4835275;29;20536;-43
2023/05/18 15:43:37;;;;;;;11.33;10.73;;;21.00;99.90;;;;;;4835482;29;20193;-44
2023/05/18 15:46:04;;;;;;;10.33;9.83;;;20.80;99.90;;;;;;4838310;29;20224;-43
2023/05/18 15:48:29;;;;;;;11.00;10.40;;;21.20;99.90;;;;;;4836138;29;20961;-42
2023/05/18 15:50:55;;;;;;;11.13;10.73;;;21.70;99.90;;;;;;4835605;29;20537;-46
2023/05/18 15:53:20;;;;;;;11.43;10.83;;;21.90;99.90;;;;;;4837511;29;21079;-45
2023/05/18 15:55:49;;;;;;;10.87;10.37;;;21.80;99.90;;;;;;4840944;29;20194;-43
2023/05/18 15:58:15;;;;;;;10.60;10.10;;;21.70;99.90;;;;;;4841501;29;20186;-47
2023/05/18 16:00:40;;;;;;;11.47;10.83;;;21.40;99.90;;;;;;4844322;29;20453;-43
2023/05/18 16:03:06;;;;;;;11.43;10.83;;;21.30;99.90;;;;;;4839280;29;20190;-43
2023/05/18 16:05:32;;;;;;;11.23;10.73;;;21.00;99.90;;;;;;4840760;29;20181;-42
2023/05/18 16:07:58;;;;;;;11.27;10.67;;;20.80;99.90;;;;;;4841155;29;20606;-42
2023/05/18 16:10:24;;;;;;;12.00;11.40;;;20.60;99.90;;;;;;4840534;29;20182;-43
2023/05/18 16:12:49;;;;;;;11.30;10.70;;;20.40;99.90;;;;;;4837863;29;20805;-43
2023/05/18 16:15:15;;;;;;;12.10;11.10;;;20.20;99.90;;;;;;4840070;29;20509;-46
2023/05/18 16:17:41;;;;;;;11.03;10.43;;;20.00;99.90;;;;;;4838862;29;20190;-48
2023/05/18 16:20:07;;;;;;;11.20;10.70;;;19.90;99.90;;;;;;4840363;29;20222;-55
2023/05/18 16:22:32;;;;;;;11.27;10.77;;;19.80;99.90;;;;;;4820172;29;20197;-55
2023/05/18 16:24:58;;;;;;;11.87;11.27;;;19.80;99.90;;;;;;4842909;29;20846;-55
2023/05/18 16:27:23;;;;;;;10.50;10.10;;;19.70;99.90;;;;;;4840134;29;20245;-55
2023/05/18 16:29:50;;;;;;;10.67;10.17;;;19.80;99.90;;;;;;4839348;29;20215;-53
2023/05/18 16:32:16;;;;;;;11.00;10.43;;;19.90;99.90;;;;;;4838782;29;20181;-56
2023/05/18 16:34:41;;;;;;;10.43;9.93;;;20.10;99.90;;;;;;4839406;29;20434;-56
2023/05/18 16:37:07;;;;;;;11.50;11.00;;;20.30;99.90;;;;;;4840636;29;20185;-56
2023/05/18 16:39:33;;;;;;;10.90;10.40;;;20.50;99.90;;;;;;4837429;29;20225;-56
2023/05/18 16:41:58;;;;;;;10.60;10.10;;;20.50;99.90;;;;;;4839537;29;20192;-57
2023/05/18 16:44:24;;;;;;;11.53;11.03;;;20.50;99.90;;;;;;4839077;29;20204;-56
2023/05/18 16:46:50;;;;;;;10.40;9.90;;;20.30;99.90;;;;;;4839483;29;20217;-56
2023/05/18 16:49:16;;;;;;;14.47;13.57;;;20.20;99.90;;;;;;4838989;29;20212;-56
2023/05/18 16:51:41;;;;;;;13.77;13.03;;;20.00;99.90;;;;;;4837096;29;20470;-55
2023/05/18 16:54:07;;;;;;;11.93;11.33;;;19.90;99.90;;;;;;4835877;29;20197;-55
2023/05/18 16:56:34;;;;;;;11.70;11.00;;;19.70;99.90;;;;;;4820670;29;20537;-56
2023/05/18 16:59:00;;;;;;;11.40;10.90;;;19.60;99.90;;;;;;4837626;29;20184;-55
2023/05/18 17:01:26;;;;;;;10.90;10.40;;;19.40;99.90;;;;;;4839689;29;20454;-54
2023/05/18 17:03:51;;;;;;;11.50;10.90;;;19.30;99.90;;;;;;4839137;29;20186;-52
2023/05/18 17:06:18;;;;;;;11.70;11.20;;;19.20;99.90;;;;;;4838729;29;20209;-56
2023/05/18 17:08:44;;;;;;;11.23;10.73;;;19.10;99.90;;;;;;4836166;29;20225;-55
2023/05/18 17:11:10;;;;;;;11.97;11.27;;;18.90;99.90;;;;;;4839687;29;20857;-53
2023/05/18 17:13:35;;;;;;;11.50;11.00;;;18.80;99.90;;;;;;4838592;29;20625;-53
2023/05/18 17:16:03;;;;;;;11.40;10.90;;;18.70;99.90;;;;;;4837463;29;20189;-53
2023/05/18 17:18:28;;;;;;;11.80;11.23;;;18.60;99.90;;;;;;4839014;29;20181;-55
2023/05/18 17:20:54;;;;;;;12.13;11.53;;;18.50;99.90;;;;;;4836052;29;20442;-55
2023/05/18 17:23:20;;;;;;;11.30;10.70;;;18.40;99.90;;;;;;4838327;29;20633;-48
2023/05/18 17:25:46;;;;;;;10.90;10.40;;;18.30;99.90;;;;;;4836658;29;20193;-60
2023/05/18 17:28:12;;;;;;;11.40;10.90;;;18.20;99.90;;;;;;4837216;29;20239;-55
2023/05/18 17:30:38;;;;;;;12.00;10.90;;;18.10;99.90;;;;;;4838352;29;20442;-54
2023/05/18 17:33:04;;;;;;;10.87;10.27;;;18.00;99.90;;;;;;4839065;29;20448;-60
2023/05/18 17:35:30;;;;;;;11.40;10.90;;;18.00;99.90;;;;;;4838171;29;20449;-51
2023/05/18 17:37:56;;;;;;;11.70;11.10;;;17.80;99.90;;;;;;4839777;29;20246;-54
2023/05/18 17:40:22;;;;;;;11.70;11.10;;;17.70;99.90;;;;;;4840664;29;20177;-55
2023/05/18 17:42:48;;;;;;;11.17;10.67;;;17.60;99.90;;;;;;4839865;29;20437;-55
2023/05/18 17:45:13;;;;;;;11.53;11.03;;;17.60;99.90;;;;;;4840922;29;20437;-55
2023/05/18 17:47:40;;;;;;;10.17;9.67;;;17.40;99.90;;;;;;4838441;29;20680;-53
2023/05/18 17:50:06;;;;;;;12.00;11.40;;;17.30;99.90;;;;;;4839364;29;20186;-55
2023/05/18 17:52:32;;;;;;;11.27;10.77;;;17.30;99.90;;;;;;4838006;29;20506;-54
2023/05/18 17:54:57;;;;;;;11.83;11.23;;;17.20;99.90;;;;;;4839158;29;21189;-54
2023/05/18 17:57:23;;;;;;;11.47;10.87;;;17.00;99.90;;;;;;4839133;29;20221;-53
2023/05/18 17:59:49;;;;;;;12.47;11.80;;;16.90;99.90;;;;;;4838212;29;20181;-53
2023/05/18 18:02:14;;;;;;;12.43;11.80;;;16.80;99.90;;;;;;4835603;29;20638;-54
2023/05/18 18:04:40;;;;;;;13.37;12.67;;;16.60;99.90;;;;;;4838847;29;20189;-51
2023/05/18 18:07:06;;;;;;;11.53;10.93;;;16.50;99.90;;;;;;4839353;29;20470;-55
2023/05/18 18:09:31;;;;;;;11.90;11.30;;;16.40;99.90;;;;;;4839478;29;20242;-55
2023/05/18 18:11:59;;;;;;;12.10;11.50;;;16.30;99.90;;;;;;4837784;29;20199;-55
2023/05/18 18:14:24;;;;;;;12.13;11.53;;;16.30;99.90;;;;;;4835230;29;20187;-54
2023/05/18 18:16:50;;;;;;;11.10;10.60;;;16.20;99.90;;;;;;4838990;29;20953;-53
2023/05/18 18:19:16;;;;;;;12.37;11.80;;;16.10;99.90;;;;;;4838997;29;20646;-54
2023/05/18 18:21:42;;;;;;;11.90;11.40;;;16.10;99.90;;;;;;4839167;29;20186;-52
2023/05/18 18:24:08;;;;;;;12.27;11.67;;;16.00;99.90;;;;;;4822211;29;20204;-52
2023/05/18 18:26:39;;;;;;;12.10;11.37;;;16.00;99.90;;;;;;4837202;29;20490;-52
2023/05/18 18:29:05;;;;;;;12.53;11.63;;;15.90;99.90;;;;;;4837928;29;20217;-50
2023/05/18 18:31:30;;;;;;;11.73;11.13;;;15.90;99.90;;;;;;4836538;29;20438;-52
2023/05/18 18:33:56;;;;;;;11.97;11.37;;;15.80;99.90;;;;;;4837642;29;20433;-54
2023/05/18 18:36:22;;;;;;;11.83;11.20;;;15.80;99.90;;;;;;4838375;29;20648;-53
2023/05/18 18:38:47;;;;;;;12.03;11.43;;;15.70;99.90;;;;;;4837573;29;20269;-55
2023/05/18 18:41:16;;;;;;;12.70;11.80;;;15.60;99.90;;;;;;4837946;29;20190;-52
2023/05/18 18:43:43;;;;;;;12.43;11.80;;;15.60;99.90;;;;;;4838291;29;20190;-51
2023/05/18 18:46:08;;;;;;;13.20;12.50;;;15.50;99.90;;;;;;4838744;29;20980;-57
2023/05/18 18:48:34;;;;;;;12.27;11.67;;;15.50;99.90;;;;;;4836588;29;20427;-50
2023/05/18 18:51:00;;;;;;;13.50;12.60;;;15.40;99.90;;;;;;4838384;29;20242;-55
2023/05/18 18:53:26;;;;;;;13.17;12.47;;;15.40;99.90;;;;;;4839008;29;20450;-54
2023/05/18 18:55:51;;;;;;;11.87;11.17;;;15.30;99.90;;;;;;4837817;29;20181;-55
2023/05/18 18:58:17;;;;;;;12.50;11.80;;;15.30;99.90;;;;;;4839544;29;20224;-53
2023/05/18 19:00:43;;;;;;;11.57;11.00;;;15.20;99.90;;;;;;4839482;29;20284;-58
2023/05/18 19:03:08;;;;;;;11.97;11.37;;;15.10;99.90;;;;;;4838102;29;20193;-52
2023/05/18 19:05:34;;;;;;;11.97;11.30;;;15.10;99.90;;;;;;4831613;29;20254;-54
2023/05/18 19:08:00;;;;;;;13.03;12.33;;;15.00;99.90;;;;;;4838594;29;20205;-54
2023/05/18 19:10:26;;;;;;;12.93;12.13;;;15.00;99.90;;;;;;4838091;29;20994;-55
2023/05/18 19:12:52;;;;;;;13.43;12.50;;;15.00;99.90;;;;;;4836761;29;20186;-52
2023/05/18 19:15:20;;;;;;;13.00;12.37;;;14.90;99.90;;;;;;4836287;29;20268;-57
2023/05/18 19:17:45;;;;;;;13.47;12.70;;;14.90;99.90;;;;;;4835545;29;20442;-54
2023/05/18 19:20:11;;;;;;;12.63;11.93;;;14.80;99.90;;;;;;4838328;29;20505;-50
2023/05/18 19:22:37;;;;;;;12.60;11.90;;;14.80;99.90;;;;;;4838260;29;20185;-52
2023/05/18 19:25:03;;;;;;;12.47;11.77;;;14.70;99.90;;;;;;4839100;29;20429;-50
2023/05/18 19:27:28;;;;;;;13.03;12.33;;;14.60;99.90;;;;;;4838591;29;20285;-49
2023/05/18 19:29:54;;;;;;;13.90;13.10;;;14.60;99.90;;;;;;4842631;29;20264;-55
2023/05/18 19:32:20;;;;;;;13.90;13.00;;;14.60;99.90;;;;;;4837529;29;20193;-55
2023/05/18 19:34:45;;;;;;;14.77;13.87;;;14.50;99.90;;;;;;4841187;29;20185;-51
2023/05/18 19:37:11;;;;;;;14.40;13.60;;;14.40;99.90;;;;;;4841372;29;20229;-57
2023/05/18 19:39:36;;;;;;;13.47;12.57;;;14.30;99.90;;;;;;4842474;29;20196;-55
2023/05/18 19:42:02;;;;;;;14.10;13.30;;;14.30;99.90;;;;;;4842121;29;20194;-61
2023/05/18 19:44:28;;;;;;;14.20;13.30;;;14.20;99.90;;;;;;4841408;29;20235;-58
2023/05/18 19:46:53;;;;;;;13.63;12.93;;;14.20;99.90;;;;;;4842779;29;20464;-55
2023/05/18 19:49:19;;;;;;;13.70;12.90;;;14.10;99.90;;;;;;4843768;29;20196;-53
2023/05/18 19:51:45;;;;;;;14.60;13.70;;;14.10;99.90;;;;;;4839041;29;20200;-55
2023/05/18 19:54:11;;;;;;;13.47;12.77;;;14.10;99.90;;;;;;4843414;29;20257;-55
2023/05/18 19:56:36;;;;;;;14.17;13.37;;;14.00;99.90;;;;;;4838477;29;20450;-52
2023/05/18 19:59:02;;;;;;;14.00;13.10;;;14.00;99.90;;;;;;4841732;29;20245;-55
2023/05/18 20:01:28;;;;;;;14.47;13.67;;;13.90;99.90;;;;;;4840709;29;20284;-54
2023/05/18 20:03:55;;;;;;;14.40;13.40;;;13.90;99.90;;;;;;4841056;29;20193;-52
2023/05/18 20:06:21;;;;;;;14.20;13.30;;;13.90;99.90;;;;;;4841045;29;20224;-55
2023/05/18 20:08:47;;;;;;;14.50;13.67;;;13.80;99.90;;;;;;4847828;29;20422;-53
2023/05/18 20:11:13;;;;;;;15.43;14.33;;;13.80;99.90;;;;;;4838154;29;20189;-58
2023/05/18 20:13:41;;;;;;;14.20;13.30;;;13.70;99.90;;;;;;4842136;29;20265;-47
2023/05/18 20:16:07;;;;;;;15.07;14.07;;;13.70;99.90;;;;;;4845283;29;20531;-55
2023/05/18 20:18:33;;;;;;;14.00;13.17;;;13.60;99.90;;;;;;4844143;29;20440;-53
2023/05/18 20:20:59;;;;;;;14.53;13.50;;;13.60;99.90;;;;;;4840507;29;20266;-56
2023/05/18 20:23:25;;;;;;;13.07;12.07;;;13.50;99.90;;;;;;4823579;29;20436;-51
2023/05/18 20:25:51;;;;;;;14.47;13.50;;;13.50;99.90;;;;;;4838988;29;20339;-50
2023/05/18 20:28:16;;;;;;;13.57;12.73;;;13.50;99.90;;;;;;4840712;29;20260;-52
2023/05/18 20:30:42;;;;;;;14.10;13.20;;;13.40;99.90;;;;;;4841164;29;20184;-53
2023/05/18 20:33:08;;;;;;;13.20;12.40;;;13.40;99.90;;;;;;4834592;29;20657;-51
2023/05/18 20:35:34;;;;;;;13.90;13.00;;;13.30;99.90;;;;;;4840748;29;20193;-54
2023/05/18 20:38:03;;;;;;;14.07;13.07;;;13.30;99.90;;;;;;4840494;29;20193;-50
2023/05/18 20:40:32;;;;;;;13.70;13.00;;;13.30;99.90;;;;;;4839217;29;20533;-53
2023/05/18 20:42:59;;;;;;;14.70;13.80;;;13.20;99.90;;;;;;4840450;29;21311;-51
2023/05/18 20:45:26;;;;;;;13.57;12.73;;;13.20;99.90;;;;;;4845468;29;21126;-49
2023/05/18 20:47:52;;;;;;;14.50;13.70;;;13.20;99.90;;;;;;4844616;29;20466;-48
2023/05/18 20:50:21;;;;;;;15.07;14.20;;;13.20;99.90;;;;;;4838826;29;21283;-54
2023/05/18 20:52:48;;;;;;;13.30;12.60;;;13.10;99.90;;;;;;4839998;29;20192;-47
2023/05/18 20:55:14;;;;;;;14.00;13.00;;;13.10;99.90;;;;;;4839248;29;20442;-45
2023/05/18 20:57:40;;;;;;;13.80;12.83;;;13.10;99.90;;;;;;4840467;29;20457;-44
2023/05/18 21:00:07;;;;;;;14.53;13.63;;;13.00;99.90;;;;;;4840981;29;20242;-45
2023/05/18 21:02:34;;;;;;;13.40;12.60;;;13.00;99.90;;;;;;4839641;29;20524;-45
2023/05/18 21:05:01;;;;;;;21.83;20.17;;;12.90;99.90;;;;;;4835328;29;20185;-45
2023/05/18 21:07:27;;;;;;;22.57;20.80;;;13.00;99.90;;;;;;4840554;29;20462;-44
2023/05/18 21:09:53;;;;;;;23.20;21.40;;;12.90;99.90;;;;;;4840329;29;20426;-44
2023/05/18 21:12:18;;;;;;;21.70;19.93;;;12.90;99.90;;;;;;4840230;29;20800;-43
2023/05/18 21:14:44;;;;;;;20.77;19.27;;;12.90;99.90;;;;;;4847837;29;20219;-47
2023/05/18 21:17:10;;;;;;;18.60;17.30;;;12.90;99.90;;;;;;4844789;29;20196;-43
2023/05/18 21:19:35;;;;;;;18.53;17.27;;;12.80;99.90;;;;;;4840265;29;20208;-46
2023/05/18 21:22:01;;;;;;;21.90;20.13;;;12.80;99.90;;;;;;4839931;29;20197;-42
2023/05/18 21:24:26;;;;;;;17.43;16.17;;;12.80;99.90;;;;;;4839341;29;20549;-44
2023/05/18 21:26:52;;;;;;;19.93;18.57;;;12.80;99.90;;;;;;4839297;29;20244;-46
2023/05/18 21:29:18;;;;;;;19.40;18.03;;;12.80;99.90;;;;;;4823821;29;20219;-45
2023/05/18 21:31:43;;;;;;;18.40;17.10;;;12.80;99.90;;;;;;4834169;29;20781;-44
2023/05/18 21:34:09;;;;;;;16.60;15.50;;;12.80;99.90;;;;;;4840976;29;20182;-45
2023/05/18 21:36:35;;;;;;;15.47;14.37;;;12.70;99.90;;;;;;4839941;29;20662;-45
2023/05/18 21:39:04;;;;;;;16.03;15.03;;;12.70;99.90;;;;;;4840479;29;20189;-42
2023/05/18 21:44:52;;;;;;;15.10;14.07;;;12.70;99.90;;;;;;4837170;29;20425;-46
2023/05/18 21:47:18;;;;;;;15.40;14.50;;;12.70;99.90;;;;;;4839068;29;20473;-44
2023/05/18 21:49:43;;;;;;;14.57;13.50;;;12.70;99.90;;;;;;4841310;29;20437;-44
2023/05/18 21:52:09;;;;;;;14.83;13.93;;;12.70;99.90;;;;;;4838246;29;20246;-43
2023/05/18 21:54:35;;;;;;;15.67;14.67;;;12.70;99.90;;;;;;4839916;29;20223;-44
2023/05/18 21:57:01;;;;;;;15.03;14.13;;;12.60;99.90;;;;;;4839834;29;20212;-43
2023/05/18 21:59:27;;;;;;;15.30;14.30;;;12.60;99.90;;;;;;4839276;29;20458;-47
2023/05/18 22:01:52;;;;;;;16.10;15.20;;;12.60;99.90;;;;;;4838107;29;20189;-42
2023/05/18 22:04:18;;;;;;;16.27;15.07;;;12.60;99.90;;;;;;4822865;29;20660;-44
2023/05/18 22:06:43;;;;;;;16.57;15.27;;;12.60;99.90;;;;;;4839521;29;20220;-42
2023/05/18 22:09:09;;;;;;;16.03;14.83;;;12.60;99.90;;;;;;4839704;29;20213;-43
2023/05/18 22:11:35;;;;;;;16.17;15.10;;;12.50;99.90;;;;;;4838883;29;20193;-42
2023/05/18 22:14:01;;;;;;;17.30;16.03;;;12.50;99.90;;;;;;4839495;29;20177;-43
2023/05/18 22:16:27;;;;;;;20.13;18.63;;;12.50;99.90;;;;;;4838033;29;20481;-43
2023/05/18 22:18:52;;;;;;;18.80;17.40;;;12.50;99.90;;;;;;4839735;29;21021;-42
2023/05/18 22:21:18;;;;;;;18.03;16.83;;;12.40;99.90;;;;;;4837047;29;20193;-43
2023/05/18 22:23:43;;;;;;;16.40;15.40;;;12.40;99.90;;;;;;4839584;29;20226;-43
2023/05/18 22:26:11;;;;;;;15.50;14.53;;;12.40;99.90;;;;;;4838562;29;20706;-45
2023/05/18 22:28:36;;;;;;;15.37;14.27;;;12.30;99.90;;;;;;4839570;29;20629;-47
2023/05/18 22:31:02;;;;;;;14.97;14.07;;;12.30;99.90;;;;;;4838396;29;20446;-43
2023/05/18 22:33:27;;;;;;;14.93;13.93;;;12.30;99.90;;;;;;4838565;29;20217;-42
2023/05/18 22:35:53;;;;;;;13.97;13.17;;;12.30;99.90;;;;;;4839338;29;20177;-44
2023/05/18 22:38:19;;;;;;;14.10;13.30;;;12.30;99.90;;;;;;4838978;29;20184;-42
2023/05/18 22:40:45;;;;;;;15.23;14.17;;;12.30;99.90;;;;;;4839055;29;20189;-43
2023/05/18 22:43:10;;;;;;;14.30;13.40;;;12.30;99.90;;;;;;4838658;29;20238;-45
2023/05/18 22:45:36;;;;;;;14.70;13.80;;;12.20;99.90;;;;;;4838226;29;20449;-42
2023/05/18 22:48:01;;;;;;;14.30;13.50;;;12.30;99.90;;;;;;4838299;29;20213;-47
2023/05/18 22:50:27;;;;;;;14.77;13.87;;;12.20;99.90;;;;;;4836065;29;20185;-43
2023/05/18 22:52:53;;;;;;;14.20;13.40;;;12.20;99.90;;;;;;4838025;29;20185;-42
2023/05/18 22:55:19;;;;;;;13.90;13.10;;;12.20;99.90;;;;;;4823190;29;20553;-44
2023/05/18 22:57:45;;;;;;;14.50;13.50;;;12.20;99.90;;;;;;4839182;29;20426;-43
2023/05/18 23:00:12;;;;;;;14.00;13.20;;;12.20;99.90;;;;;;4822672;29;20218;-44
2023/05/18 23:02:39;;;;;;;14.30;13.50;;;12.30;99.90;;;;;;4837862;29;20193;-41
2023/05/18 23:05:05;;;;;;;14.40;13.50;;;12.30;99.90;;;;;;4838917;29;21410;-44
2023/05/18 23:07:34;;;;;;;13.87;13.07;;;12.30;99.90;;;;;;4840076;29;20544;-46
2023/05/18 23:10:04;;;;;;;14.40;13.60;;;12.30;99.90;;;;;;4838284;29;20465;-43
2023/05/18 23:12:31;;;;;;;15.10;14.20;;;12.30;99.90;;;;;;4838014;29;20485;-47
2023/05/18 23:14:57;;;;;;;14.63;13.83;;;12.30;99.90;;;;;;4838934;29;20904;-43
2023/05/18 23:17:22;;;;;;;14.00;13.30;;;12.30;99.90;;;;;;4838745;29;20418;-42
2023/05/18 23:19:49;;;;;;;15.70;14.70;;;12.30;99.90;;;;;;4839064;29;20470;-44
2023/05/18 23:22:15;;;;;;;14.33;13.50;;;12.20;99.90;;;;;;4838034;29;20193;-51
2023/05/18 23:24:42;;;;;;;15.50;14.50;;;12.20;99.90;;;;;;4837462;29;20430;-54
2023/05/18 23:27:08;;;;;;;15.87;14.97;;;12.20;99.90;;;;;;4838823;29;20485;-54
2023/05/18 23:29:34;;;;;;;16.30;15.30;;;12.20;99.90;;;;;;4838808;29;20426;-47
2023/05/18 23:32:01;;;;;;;16.70;15.60;;;12.20;99.90;;;;;;4837960;29;20448;-54
2023/05/18 23:34:27;;;;;;;15.90;14.90;;;12.20;99.90;;;;;;4838818;29;20516;-49
2023/05/18 23:36:56;;;;;;;16.77;15.47;;;12.10;99.90;;;;;;4838157;29;21178;-51
2023/05/18 23:39:22;;;;;;;15.60;14.60;;;12.10;99.90;;;;;;4837835;29;20795;-55
2023/05/18 23:41:50;;;;;;;16.00;14.87;;;12.10;99.90;;;;;;4838038;29;20925;-44
2023/05/18 23:44:16;;;;;;;16.30;15.10;;;12.10;99.90;;;;;;4838558;29;20446;-51
2023/05/18 23:46:41;;;;;;;16.17;14.80;;;12.10;99.90;;;;;;4838390;29;20472;-52
2023/05/18 23:49:08;;;;;;;16.00;15.00;;;12.10;99.90;;;;;;4838596;29;20188;-50
2023/05/18 23:51:35;;;;;;;17.00;15.80;;;12.10;99.90;;;;;;4830964;29;20438;-53
2023/05/18 23:54:03;;;;;;;16.97;15.80;;;12.10;99.90;;;;;;4833998;29;20453;-43
2023/05/18 23:56:29;;;;;;;16.30;15.20;;;12.00;99.90;;;;;;4838247;29;20522;-57
2023/05/18 23:58:55;;;;;;;16.20;15.10;;;12.00;1.00;;;;;;4838785;29;20506;-50
